createdAt,value
2019-04-01T00:00:38.008Z,0
2019-04-01T00:01:37.982Z,0
2019-04-01T00:02:37.946Z,0
2019-04-01T00:03:38.014Z,0
2019-04-01T00:04:37.891Z,0
2019-04-01T00:05:37.862Z,0
2019-04-01T00:06:37.828Z,0
2019-04-01T00:07:37.805Z,0
2019-04-01T00:08:37.800Z,0
2019-04-01T00:09:38.951Z,0
2019-04-01T00:10:37.726Z,0
2019-04-01T00:11:37.821Z,0
2019-04-01T00:12:37.655Z,0
2019-04-01T00:13:37.639Z,0
2019-04-01T00:14:37.596Z,0
2019-04-01T00:15:37.565Z,0
2019-04-01T00:16:37.539Z,0
2019-04-01T00:17:37.514Z,0
2019-04-01T00:18:37.482Z,0
2019-04-01T00:19:37.456Z,0
2019-04-01T00:20:37.418Z,0
2019-04-01T00:21:37.388Z,0
2019-04-01T00:22:37.523Z,0
2019-04-01T00:23:37.338Z,0
2019-04-01T00:24:37.310Z,0
2019-04-01T00:25:37.272Z,0
2019-04-01T00:26:37.252Z,0
2019-04-01T00:27:37.210Z,0
2019-04-01T00:28:37.183Z,0
2019-04-01T00:29:37.152Z,0
2019-04-01T00:30:37.125Z,0
2019-04-01T00:31:37.093Z,0
2019-04-01T00:32:37.063Z,0
2019-04-01T00:33:37.030Z,0
2019-04-01T00:34:37.008Z,0
2019-04-01T00:35:36.974Z,0
2019-04-01T00:36:36.954Z,0
2019-04-01T00:37:36.915Z,0
2019-04-01T00:38:36.692Z,0
2019-04-01T00:39:36.877Z,0
2019-04-01T00:40:36.825Z,0
2019-04-01T00:41:36.794Z,0
2019-04-01T00:42:36.766Z,0
2019-04-01T00:43:36.734Z,0
2019-04-01T00:44:40.185Z,0
2019-04-01T00:45:36.685Z,0
2019-04-01T00:46:36.657Z,0
2019-04-01T00:47:36.616Z,0
2019-04-01T00:48:36.582Z,0
2019-04-01T00:49:36.556Z,0
2019-04-01T00:50:37.733Z,0
2019-04-01T00:51:36.490Z,0
2019-04-01T00:52:36.231Z,0
2019-04-01T00:53:36.427Z,0
2019-04-01T00:54:36.404Z,0
2019-04-01T00:55:36.383Z,0
2019-04-01T00:56:36.340Z,0
2019-04-01T00:57:36.320Z,0
2019-04-01T00:58:37.764Z,0
2019-04-01T00:59:36.300Z,0
2019-04-01T01:00:36.227Z,0
2019-04-01T01:01:35.956Z,0
2019-04-01T01:02:36.167Z,0
2019-04-01T01:03:36.133Z,0
2019-04-01T01:04:36.106Z,0
2019-04-01T01:05:36.082Z,0
2019-04-01T01:06:36.039Z,0
2019-04-01T01:07:36.013Z,0
2019-04-01T01:08:35.992Z,0
2019-04-01T01:09:35.949Z,0
2019-04-01T01:10:35.934Z,0
2019-04-01T01:11:35.900Z,0
2019-04-01T01:12:35.865Z,0
2019-04-01T01:13:35.835Z,0
2019-04-01T01:14:35.805Z,0
2019-04-01T01:15:35.769Z,0
2019-04-01T01:16:35.744Z,0
2019-04-01T01:17:35.717Z,0
2019-04-01T01:18:35.682Z,0
2019-04-01T01:19:35.657Z,0
2019-04-01T01:20:35.643Z,0
2019-04-01T01:21:35.590Z,0
2019-04-01T01:22:35.564Z,0
2019-04-01T01:23:35.536Z,0
2019-04-01T01:24:37.386Z,0
2019-04-01T01:25:35.562Z,0
2019-04-01T01:26:35.442Z,0
2019-04-01T01:27:35.174Z,0
2019-04-01T01:28:35.390Z,0
2019-04-01T01:29:35.357Z,0
2019-04-01T01:30:35.314Z,0
2019-04-01T01:31:35.285Z,0
2019-04-01T01:32:35.258Z,0
2019-04-01T01:33:35.232Z,0
2019-04-01T01:34:35.201Z,0
2019-04-01T01:35:34.939Z,0
2019-04-01T01:36:35.148Z,0
2019-04-01T01:37:35.189Z,0
2019-04-01T01:38:35.083Z,0
2019-04-01T01:39:35.051Z,0
2019-04-01T01:40:34.785Z,0
2019-04-01T01:41:34.984Z,0
2019-04-01T01:42:34.967Z,0
2019-04-01T01:43:34.932Z,0
2019-04-01T01:44:34.896Z,0
2019-04-01T01:45:34.864Z,0
2019-04-01T01:46:34.841Z,0
2019-04-01T01:47:34.810Z,0
2019-04-01T01:48:34.827Z,0
2019-04-01T01:49:34.752Z,0
2019-04-01T01:50:34.729Z,0
2019-04-01T01:51:34.685Z,0
2019-04-01T01:52:34.655Z,0
2019-04-01T01:53:34.621Z,0
2019-04-01T01:54:34.588Z,0
2019-04-01T01:55:34.565Z,0
2019-04-01T01:56:34.547Z,0
2019-04-01T01:57:34.500Z,0
2019-04-01T01:58:34.471Z,0
2019-04-01T01:59:34.440Z,0
2019-04-01T02:00:35.608Z,0
2019-04-01T02:01:34.380Z,0
2019-04-01T02:02:34.361Z,0
2019-04-01T02:03:34.324Z,0
2019-04-01T02:04:34.288Z,0
2019-04-01T02:05:34.258Z,0
2019-04-01T02:06:34.227Z,0
2019-04-01T02:07:34.196Z,0
2019-04-01T02:08:34.162Z,0
2019-04-01T02:09:34.139Z,0
2019-04-01T02:10:34.110Z,0
2019-04-01T02:11:34.078Z,0
2019-04-01T02:12:34.054Z,0
2019-04-01T02:13:34.019Z,0
2019-04-01T02:14:33.990Z,0
2019-04-01T02:15:33.955Z,0
2019-04-01T02:16:33.923Z,0
2019-04-01T02:17:33.894Z,0
2019-04-01T02:18:33.904Z,0
2019-04-01T02:19:33.830Z,0
2019-04-01T02:20:33.795Z,0
2019-04-01T02:21:33.785Z,0
2019-04-01T02:22:33.739Z,0
2019-04-01T02:23:33.706Z,0
2019-04-01T02:24:33.685Z,0
2019-04-01T02:25:33.650Z,0
2019-04-01T02:26:33.616Z,0
2019-04-01T02:27:33.584Z,0
2019-04-01T02:28:33.550Z,0
2019-04-01T02:29:33.520Z,0
2019-04-01T02:30:33.505Z,0
2019-04-01T02:31:33.473Z,0
2019-04-01T02:32:33.465Z,0
2019-04-01T02:33:33.438Z,0
2019-04-01T02:34:33.381Z,0
2019-04-01T02:35:33.349Z,0
2019-04-01T02:36:33.314Z,0
2019-04-01T02:37:33.294Z,0
2019-04-01T02:38:33.261Z,0
2019-04-01T02:39:33.222Z,0
2019-04-01T02:40:33.218Z,0
2019-04-01T02:41:32.941Z,0
2019-04-01T02:42:33.145Z,0
2019-04-01T02:43:33.114Z,0
2019-04-01T02:44:33.070Z,0
2019-04-01T02:45:33.159Z,0
2019-04-01T02:46:33.049Z,0
2019-04-01T02:47:32.970Z,0
2019-04-01T02:48:33.090Z,0
2019-04-01T02:49:32.920Z,0
2019-04-01T02:50:32.904Z,0
2019-04-01T02:51:32.865Z,0
2019-04-01T02:52:32.833Z,0
2019-04-01T02:53:32.804Z,0
2019-04-01T02:54:32.812Z,0
2019-04-01T02:55:32.747Z,0
2019-04-01T02:56:32.710Z,0
2019-04-01T02:57:32.687Z,0
2019-04-01T02:58:32.642Z,0
2019-04-01T02:59:32.720Z,0
2019-04-01T03:00:32.597Z,0
2019-04-01T03:01:32.349Z,0
2019-04-01T03:02:32.513Z,0
2019-04-01T03:03:32.487Z,0
2019-04-01T03:04:32.468Z,0
2019-04-01T03:05:32.590Z,0
2019-04-01T03:06:32.538Z,0
2019-04-01T03:07:32.364Z,0
2019-04-01T03:08:32.336Z,0
2019-04-01T03:09:32.318Z,0
2019-04-01T03:10:32.439Z,0
2019-04-01T03:11:32.257Z,0
2019-04-01T03:12:32.270Z,0
2019-04-01T03:13:32.295Z,0
2019-04-01T03:14:32.004Z,0
2019-04-01T03:15:32.387Z,0
2019-04-01T03:16:32.187Z,0
2019-04-01T03:17:32.091Z,0
2019-04-01T03:18:32.034Z,0
2019-04-01T03:19:31.786Z,0
2019-04-01T03:20:31.976Z,0
2019-04-01T03:21:31.931Z,0
2019-04-01T03:22:31.893Z,0
2019-04-01T03:23:31.863Z,0
2019-04-01T03:24:31.630Z,0
2019-04-01T03:25:31.806Z,0
2019-04-01T03:26:31.781Z,0
2019-04-01T03:27:31.742Z,0
2019-04-01T03:28:31.707Z,0
2019-04-01T03:29:31.480Z,0
2019-04-01T03:30:31.748Z,0
2019-04-01T03:31:31.623Z,0
2019-04-01T03:32:31.631Z,0
2019-04-01T03:33:31.329Z,0
2019-04-01T03:34:31.628Z,0
2019-04-01T03:35:31.522Z,0
2019-04-01T03:36:31.459Z,0
2019-04-01T03:37:31.194Z,0
2019-04-01T03:38:34.993Z,0
2019-04-01T03:39:31.386Z,0
2019-04-01T03:40:31.341Z,0
2019-04-01T03:41:31.332Z,0
2019-04-01T03:42:31.271Z,0
2019-04-01T03:43:31.258Z,0
2019-04-01T03:44:31.236Z,0
2019-04-01T03:45:31.201Z,0
2019-04-01T03:46:31.182Z,0
2019-04-01T03:47:31.121Z,0
2019-04-01T03:48:31.092Z,0
2019-04-01T03:49:31.071Z,0
2019-04-01T03:50:31.242Z,0
2019-04-01T03:51:30.988Z,0
2019-04-01T03:52:30.968Z,0
2019-04-01T03:53:30.924Z,0
2019-04-01T03:54:30.912Z,0
2019-04-01T03:55:30.865Z,0
2019-04-01T03:56:30.848Z,0
2019-04-01T03:57:30.926Z,0
2019-04-01T03:58:30.768Z,0
2019-04-01T03:59:30.854Z,0
2019-04-01T04:00:30.483Z,0
2019-04-01T04:01:35.271Z,0
2019-04-01T04:02:30.659Z,0
2019-04-01T04:03:30.627Z,0
2019-04-01T04:04:30.634Z,0
2019-04-01T04:05:30.547Z,0
2019-04-01T04:06:30.547Z,0
2019-04-01T04:07:30.508Z,0
2019-04-01T04:08:30.467Z,0
2019-04-01T04:09:30.428Z,0
2019-04-01T04:10:30.395Z,0
2019-04-01T04:11:30.367Z,0
2019-04-01T04:12:30.344Z,0
2019-04-01T04:13:30.304Z,0
2019-04-01T04:14:30.388Z,0
2019-04-01T04:15:30.238Z,0
2019-04-01T04:16:30.225Z,0
2019-04-01T04:17:30.174Z,0
2019-04-01T04:18:30.149Z,0
2019-04-01T04:19:30.108Z,0
2019-04-01T04:20:30.115Z,0
2019-04-01T04:21:31.234Z,0
2019-04-01T04:22:30.030Z,0
2019-04-01T04:23:29.990Z,0
2019-04-01T04:24:29.998Z,0
2019-04-01T04:25:29.923Z,0
2019-04-01T04:26:29.892Z,0
2019-04-01T04:27:29.886Z,0
2019-04-01T04:28:29.603Z,0
2019-04-01T04:29:29.800Z,0
2019-04-01T04:30:29.772Z,0
2019-04-01T04:31:29.740Z,4
2019-04-01T04:32:29.725Z,4
2019-04-01T04:33:29.672Z,0
2019-04-01T04:34:29.646Z,4
2019-04-01T04:35:29.604Z,4
2019-04-01T04:36:29.583Z,4
2019-04-01T04:37:29.571Z,4
2019-04-01T04:38:29.511Z,4
2019-04-01T04:39:29.483Z,4
2019-04-01T04:40:29.456Z,8
2019-04-01T04:41:29.651Z,8
2019-04-01T04:42:29.155Z,12
2019-04-01T04:43:29.357Z,12
2019-04-01T04:44:29.324Z,16
2019-04-01T04:45:29.069Z,20
2019-04-01T04:46:29.271Z,24
2019-04-01T04:47:29.227Z,28
2019-04-01T04:48:29.211Z,32
2019-04-01T04:49:29.171Z,40
2019-04-01T04:50:29.141Z,48
2019-04-01T04:51:29.106Z,56
2019-04-01T04:52:29.068Z,64
2019-04-01T04:53:29.041Z,72
2019-04-01T04:54:29.009Z,88
2019-04-01T04:55:28.975Z,100
2019-04-01T04:56:28.937Z,116
2019-04-01T04:57:28.912Z,132
2019-04-01T04:58:28.877Z,148
2019-04-01T04:59:28.848Z,168
2019-04-01T05:00:28.820Z,188
2019-04-01T05:01:28.785Z,216
2019-04-01T05:02:31.766Z,240
2019-04-01T05:03:28.721Z,268
2019-04-01T05:04:28.685Z,296
2019-04-01T05:05:28.654Z,328
2019-04-01T05:06:28.652Z,364
2019-04-01T05:07:31.244Z,396
2019-04-01T05:08:28.584Z,436
2019-04-01T05:09:28.292Z,480
2019-04-01T05:10:28.467Z,520
2019-04-01T05:11:28.474Z,564
2019-04-01T05:12:28.437Z,612
2019-04-01T05:13:28.412Z,660
2019-04-01T05:14:28.385Z,708
2019-04-01T05:15:28.348Z,760
2019-04-01T05:16:29.175Z,812
2019-04-01T05:17:28.278Z,868
2019-04-01T05:18:28.251Z,924
2019-04-01T05:19:28.215Z,980
2019-04-01T05:20:28.184Z,1036
2019-04-01T05:21:28.152Z,1096
2019-04-01T05:22:28.126Z,1156
2019-04-01T05:23:28.085Z,1220
2019-04-01T05:24:28.062Z,1280
2019-04-01T05:25:28.029Z,1344
2019-04-01T05:26:28.002Z,1408
2019-04-01T05:27:28.333Z,1468
2019-04-01T05:28:28.815Z,1532
2019-04-01T05:29:27.673Z,1596
2019-04-01T05:30:28.484Z,1660
2019-04-01T05:31:27.932Z,1720
2019-04-01T05:32:27.889Z,1780
2019-04-01T05:33:27.775Z,1848
2019-04-01T05:34:27.744Z,1908
2019-04-01T05:35:27.713Z,1968
2019-04-01T05:36:28.529Z,2028
2019-04-01T05:37:27.413Z,2088
2019-04-01T05:38:27.645Z,2148
2019-04-01T05:39:27.621Z,2208
2019-04-01T05:40:27.660Z,2268
2019-04-01T05:41:27.540Z,2320
2019-04-01T05:42:27.505Z,2380
2019-04-01T05:43:27.460Z,2436
2019-04-01T05:44:27.447Z,2492
2019-04-01T05:45:27.400Z,2548
2019-04-01T05:46:27.371Z,2600
2019-04-01T05:47:27.343Z,2648
2019-04-01T05:48:27.303Z,2704
2019-04-01T05:49:27.274Z,2756
2019-04-01T05:50:27.245Z,2804
2019-04-01T05:51:27.208Z,2860
2019-04-01T05:52:27.236Z,2904
2019-04-01T05:53:27.148Z,2960
2019-04-01T05:54:27.119Z,3012
2019-04-01T05:55:27.102Z,3064
2019-04-01T05:56:29.268Z,3112
2019-04-01T05:57:29.331Z,3160
2019-04-01T05:58:29.710Z,3208
2019-04-01T05:59:28.431Z,3252
2019-04-01T06:00:29.521Z,3296
2019-04-01T06:01:28.785Z,3340
2019-04-01T06:02:29.240Z,3388
2019-04-01T06:03:27.926Z,3436
2019-04-01T06:04:29.410Z,3484
2019-04-01T06:05:28.421Z,3528
2019-04-01T06:06:28.391Z,3564
2019-04-01T06:07:29.260Z,3608
2019-04-01T06:08:28.616Z,3644
2019-04-01T06:09:28.481Z,3684
2019-04-01T06:10:29.390Z,3728
2019-04-01T06:11:27.942Z,3768
2019-04-01T06:12:30.690Z,3812
2019-04-01T06:13:28.344Z,3848
2019-04-01T06:14:28.285Z,3888
2019-04-01T06:15:28.436Z,3928
2019-04-01T06:16:28.694Z,3960
2019-04-01T06:17:28.137Z,3988
2019-04-01T06:18:28.111Z,4016
2019-04-01T06:19:28.524Z,4048
2019-04-01T06:20:27.837Z,4080
2019-04-01T06:21:27.723Z,4116
2019-04-01T06:22:28.191Z,4144
2019-04-01T06:23:28.165Z,4176
2019-04-01T06:24:31.356Z,4212
2019-04-01T06:25:28.631Z,4256
2019-04-01T06:26:28.237Z,4292
2019-04-01T06:27:29.608Z,4320
2019-04-01T06:28:27.498Z,4348
2019-04-01T06:29:27.535Z,4376
2019-04-01T06:30:29.945Z,4400
2019-04-01T06:31:28.437Z,4428
2019-04-01T06:32:27.141Z,4456
2019-04-01T06:33:27.699Z,4484
2019-04-01T06:34:27.614Z,4516
2019-04-01T06:35:27.727Z,4544
2019-04-01T06:36:27.693Z,4568
2019-04-01T06:37:27.031Z,4596
2019-04-01T06:38:27.679Z,4628
2019-04-01T06:39:26.792Z,4660
2019-04-01T06:40:28.142Z,4688
2019-04-01T06:41:27.228Z,4712
2019-04-01T06:42:27.384Z,4728
2019-04-01T06:43:25.844Z,4752
2019-04-01T06:44:27.374Z,4780
2019-04-01T06:45:27.414Z,4808
2019-04-01T06:46:26.667Z,4836
2019-04-01T06:47:28.015Z,4864
2019-04-01T06:48:26.626Z,4900
2019-04-01T06:49:27.808Z,4944
2019-04-01T06:50:26.689Z,4964
2019-04-01T06:51:27.864Z,4992
2019-04-01T06:52:27.367Z,5020
2019-04-01T06:53:26.645Z,5044
2019-04-01T06:54:26.813Z,5068
2019-04-01T06:55:27.378Z,5096
2019-04-01T06:56:26.510Z,5128
2019-04-01T06:57:27.055Z,5156
2019-04-01T06:58:26.490Z,5184
2019-04-01T06:59:27.246Z,5204
2019-04-01T07:00:27.106Z,5212
2019-04-01T07:01:27.525Z,5224
2019-04-01T07:02:27.910Z,5236
2019-04-01T07:03:27.099Z,5244
2019-04-01T07:04:26.808Z,5260
2019-04-01T07:05:27.413Z,5284
2019-04-01T07:06:26.813Z,5304
2019-04-01T07:07:27.719Z,5336
2019-04-01T07:08:26.717Z,5360
2019-04-01T07:09:26.345Z,5372
2019-04-01T07:10:30.484Z,5380
2019-04-01T07:11:28.417Z,5388
2019-04-01T07:12:26.501Z,5400
2019-04-01T07:13:26.886Z,5412
2019-04-01T07:14:26.316Z,5440
2019-04-01T07:15:26.087Z,5460
2019-04-01T07:16:28.923Z,5476
2019-04-01T07:17:26.868Z,5492
2019-04-01T07:18:26.858Z,5508
2019-04-01T07:19:26.386Z,5520
2019-04-01T07:20:26.395Z,5540
2019-04-01T07:21:26.443Z,5548
2019-04-01T07:22:26.558Z,5568
2019-04-01T07:23:26.251Z,5580
2019-04-01T07:24:26.410Z,5592
2019-04-01T07:25:25.109Z,5608
2019-04-01T07:26:26.185Z,5624
2019-04-01T07:27:27.105Z,5640
2019-04-01T07:28:26.355Z,5660
2019-04-01T07:29:26.051Z,5672
2019-04-01T07:30:26.562Z,5684
2019-04-01T07:31:26.495Z,5700
2019-04-01T07:32:26.716Z,5712
2019-04-01T07:33:25.494Z,5732
2019-04-01T07:34:26.169Z,5740
2019-04-01T07:35:26.188Z,5752
2019-04-01T07:36:25.749Z,5756
2019-04-01T07:37:24.915Z,5772
2019-04-01T07:38:25.524Z,5788
2019-04-01T07:39:25.530Z,5796
2019-04-01T07:40:25.793Z,5804
2019-04-01T07:41:25.074Z,5816
2019-04-01T07:42:25.796Z,5828
2019-04-01T07:43:25.669Z,5828
2019-04-01T07:44:25.519Z,5832
2019-04-01T07:45:25.141Z,5844
2019-04-01T07:46:25.836Z,5852
2019-04-01T07:47:26.216Z,5868
2019-04-01T07:48:24.915Z,5876
2019-04-01T07:49:25.231Z,5884
2019-04-01T07:50:26.097Z,5888
2019-04-01T07:51:26.522Z,5900
2019-04-01T07:52:26.701Z,5908
2019-04-01T07:53:25.298Z,5916
2019-04-01T07:54:26.635Z,5920
2019-04-01T07:55:25.795Z,5928
2019-04-01T07:56:27.504Z,5932
2019-04-01T07:57:25.253Z,5940
2019-04-01T07:58:26.293Z,5944
2019-04-01T07:59:24.879Z,5956
2019-04-01T08:00:25.959Z,5972
2019-04-01T08:01:26.429Z,5984
2019-04-01T08:02:24.977Z,6004
2019-04-01T08:03:25.066Z,6012
2019-04-01T08:04:25.007Z,6020
2019-04-01T08:05:29.183Z,6028
2019-04-01T08:06:25.864Z,6036
2019-04-01T08:07:25.041Z,6048
2019-04-01T08:08:24.294Z,6056
2019-04-01T08:09:24.543Z,6064
2019-04-01T08:10:25.685Z,6080
2019-04-01T08:11:24.339Z,6088
2019-04-01T08:12:27.545Z,6100
2019-04-01T08:13:25.532Z,6104
2019-04-01T08:14:25.159Z,6116
2019-04-01T08:15:27.585Z,6128
2019-04-01T08:16:23.787Z,6132
2019-04-01T08:17:25.469Z,6140
2019-04-01T08:18:24.698Z,6152
2019-04-01T08:19:25.007Z,6164
2019-04-01T08:20:24.272Z,6176
2019-04-01T08:21:24.490Z,6184
2019-04-01T08:22:25.275Z,6192
2019-04-01T08:23:24.520Z,6200
2019-04-01T08:24:23.799Z,6208
2019-04-01T08:25:25.117Z,6216
2019-04-01T08:26:24.887Z,6224
2019-04-01T08:27:25.004Z,6220
2019-04-01T08:28:27.248Z,6228
2019-04-01T08:29:38.776Z,6236
2019-04-01T08:30:24.429Z,6240
2019-04-01T08:31:24.211Z,6248
2019-04-01T08:32:23.447Z,6252
2019-04-01T08:33:24.075Z,6260
2019-04-01T08:34:23.628Z,6268
2019-04-01T08:35:23.650Z,6276
2019-04-01T08:36:24.271Z,6288
2019-04-01T08:37:23.937Z,6296
2019-04-01T08:38:24.301Z,6300
2019-04-01T08:39:23.660Z,6308
2019-04-01T08:40:23.639Z,6316
2019-04-01T08:41:24.939Z,6324
2019-04-01T08:42:23.914Z,6328
2019-04-01T08:43:23.885Z,6336
2019-04-01T08:44:23.116Z,6340
2019-04-01T08:45:24.336Z,6348
2019-04-01T08:46:24.368Z,6348
2019-04-01T08:47:24.560Z,6360
2019-04-01T08:48:23.968Z,6368
2019-04-01T08:49:23.559Z,6380
2019-04-01T08:50:24.297Z,6392
2019-04-01T08:51:24.612Z,6404
2019-04-01T08:52:23.967Z,6412
2019-04-01T08:53:22.925Z,6420
2019-04-01T08:54:24.379Z,6432
2019-04-01T08:55:24.744Z,6440
2019-04-01T08:56:24.250Z,6448
2019-04-01T08:57:24.462Z,6456
2019-04-01T08:58:23.713Z,6472
2019-04-01T08:59:24.108Z,6480
2019-04-01T09:00:24.300Z,6480
2019-04-01T09:01:37.403Z,6484
2019-04-01T09:02:27.101Z,6488
2019-04-01T09:03:23.731Z,6492
2019-04-01T09:04:24.082Z,6496
2019-04-01T09:05:23.946Z,6508
2019-04-01T09:06:23.746Z,6512
2019-04-01T09:07:24.564Z,6516
2019-04-01T09:08:23.266Z,6516
2019-04-01T09:09:22.810Z,6528
2019-04-01T09:10:23.214Z,6536
2019-04-01T09:11:22.687Z,6540
2019-04-01T09:12:22.408Z,6548
2019-04-01T09:13:23.475Z,6552
2019-04-01T09:14:23.789Z,6568
2019-04-01T09:15:23.140Z,6576
2019-04-01T09:16:23.307Z,6588
2019-04-01T09:17:24.051Z,6588
2019-04-01T09:18:22.760Z,6592
2019-04-01T09:19:22.607Z,6600
2019-04-01T09:20:23.929Z,6608
2019-04-01T09:21:23.835Z,6616
2019-04-01T09:22:22.314Z,6632
2019-04-01T09:23:23.152Z,6648
2019-04-01T09:24:22.889Z,6648
2019-04-01T09:25:22.130Z,6656
2019-04-01T09:26:22.622Z,6660
2019-04-01T09:27:23.229Z,6660
2019-04-01T09:28:24.879Z,6660
2019-04-01T09:29:23.376Z,6672
2019-04-01T09:30:24.308Z,6680
2019-04-01T09:31:22.979Z,6680
2019-04-01T09:32:22.562Z,6684
2019-04-01T09:33:22.116Z,6688
2019-04-01T09:34:22.454Z,6692
2019-04-01T09:35:23.017Z,6696
2019-04-01T09:36:22.644Z,6700
2019-04-01T09:37:22.355Z,6704
2019-04-01T09:38:23.092Z,6708
2019-04-01T09:39:22.255Z,6716
2019-04-01T09:40:22.251Z,6716
2019-04-01T09:41:21.834Z,6724
2019-04-01T09:42:22.507Z,6732
2019-04-01T09:43:25.010Z,6736
2019-04-01T09:44:35.986Z,6744
2019-04-01T09:45:22.937Z,6736
2019-04-01T09:46:21.628Z,6732
2019-04-01T09:47:22.565Z,6732
2019-04-01T09:48:28.324Z,6744
2019-04-01T09:49:22.696Z,6752
2019-04-01T09:50:22.452Z,6756
2019-04-01T09:51:21.914Z,6752
2019-04-01T09:52:21.570Z,6760
2019-04-01T09:53:22.247Z,6768
2019-04-01T09:54:22.408Z,6776
2019-04-01T09:55:22.171Z,6776
2019-04-01T09:56:22.401Z,6780
2019-04-01T09:57:27.017Z,6788
2019-04-01T09:58:22.328Z,6792
2019-04-01T09:59:22.394Z,6804
2019-04-01T10:00:22.098Z,6812
2019-04-01T10:01:22.939Z,6816
2019-04-01T10:02:36.814Z,6824
2019-04-01T10:03:22.289Z,6824
2019-04-01T10:04:21.991Z,6836
2019-04-01T10:05:21.826Z,6844
2019-04-01T10:06:21.180Z,6848
2019-04-01T10:07:20.994Z,6860
2019-04-01T10:08:21.865Z,6872
2019-04-01T10:09:22.234Z,6884
2019-04-01T10:10:22.105Z,6896
2019-04-01T10:11:20.728Z,6908
2019-04-01T10:12:22.150Z,6916
2019-04-01T10:13:21.996Z,6928
2019-04-01T10:14:22.154Z,6928
2019-04-01T10:15:21.476Z,6936
2019-04-01T10:16:21.200Z,6944
2019-04-01T10:17:22.343Z,6960
2019-04-01T10:18:21.823Z,6980
2019-04-01T10:19:23.571Z,7004
2019-04-01T10:20:21.957Z,7024
2019-04-01T10:21:20.856Z,7048
2019-04-01T10:22:21.957Z,7068
2019-04-01T10:23:22.663Z,7084
2019-04-01T10:24:22.458Z,7104
2019-04-01T10:25:22.671Z,7120
2019-04-01T10:26:22.061Z,7132
2019-04-01T10:27:22.305Z,7156
2019-04-01T10:28:22.184Z,7176
2019-04-01T10:29:21.904Z,7196
2019-04-01T10:30:21.623Z,7212
2019-04-01T10:31:20.003Z,7232
2019-04-01T10:32:21.174Z,7244
2019-04-01T10:33:20.980Z,7260
2019-04-01T10:34:21.300Z,7268
2019-04-01T10:35:22.073Z,7272
2019-04-01T10:36:20.670Z,7276
2019-04-01T10:37:21.558Z,7296
2019-04-01T10:38:21.919Z,7312
2019-04-01T10:39:21.608Z,7324
2019-04-01T10:40:21.308Z,7328
2019-04-01T10:41:21.630Z,7328
2019-04-01T10:42:21.793Z,7340
2019-04-01T10:43:20.612Z,7348
2019-04-01T10:44:21.183Z,7360
2019-04-01T10:45:22.746Z,7368
2019-04-01T10:46:21.259Z,7376
2019-04-01T10:47:21.828Z,7380
2019-04-01T10:48:20.754Z,7388
2019-04-01T10:49:21.671Z,7396
2019-04-01T10:50:21.991Z,7400
2019-04-01T10:51:21.842Z,7404
2019-04-01T10:52:21.648Z,7408
2019-04-01T10:53:20.537Z,7412
2019-04-01T10:54:22.267Z,7404
2019-04-01T10:55:22.651Z,7404
2019-04-01T10:56:20.315Z,7408
2019-04-01T10:57:21.551Z,7412
2019-04-01T10:58:21.349Z,7416
2019-04-01T10:59:20.408Z,7424
2019-04-01T11:00:21.150Z,7436
2019-04-01T11:01:20.577Z,7440
2019-04-01T11:02:20.881Z,7444
2019-04-01T11:03:18.851Z,7448
2019-04-01T11:04:18.563Z,7444
2019-04-01T11:05:18.835Z,7460
2019-04-01T11:06:18.683Z,7476
2019-04-01T11:07:18.847Z,7484
2019-04-01T11:08:18.505Z,7492
2019-04-01T11:09:18.802Z,7500
2019-04-01T11:10:19.052Z,7508
2019-04-01T11:11:18.526Z,7512
2019-04-01T11:12:18.435Z,7524
2019-04-01T11:13:18.419Z,7532
2019-04-01T11:14:18.397Z,7532
2019-04-01T11:15:22.826Z,7532
2019-04-01T11:16:19.180Z,7540
2019-04-01T11:17:19.772Z,7544
2019-04-01T11:18:19.188Z,7552
2019-04-01T11:19:18.273Z,7552
2019-04-01T11:20:18.241Z,7540
2019-04-01T11:21:18.325Z,7540
2019-04-01T11:22:18.202Z,7540
2019-04-01T11:23:18.185Z,7540
2019-04-01T11:24:18.168Z,7540
2019-04-01T11:25:18.143Z,7536
2019-04-01T11:26:18.222Z,7520
2019-04-01T11:27:18.131Z,7516
2019-04-01T11:28:18.076Z,7508
2019-04-01T11:29:18.054Z,7508
2019-04-01T11:30:20.911Z,7516
2019-04-01T11:31:18.168Z,7520
2019-04-01T11:32:20.690Z,7528
2019-04-01T11:33:18.145Z,7536
2019-04-01T11:34:19.271Z,7532
2019-04-01T11:35:18.856Z,7528
2019-04-01T11:36:19.017Z,7520
2019-04-01T11:37:17.980Z,7516
2019-04-01T11:38:17.711Z,7512
2019-04-01T11:39:18.092Z,7504
2019-04-01T11:40:19.459Z,7500
2019-04-01T11:41:17.835Z,7500
2019-04-01T11:42:17.851Z,7504
2019-04-01T11:43:17.995Z,7512
2019-04-01T11:44:17.929Z,7516
2019-04-01T11:45:17.839Z,7516
2019-04-01T11:46:19.566Z,7516
2019-04-01T11:47:17.712Z,7524
2019-04-01T11:48:18.775Z,7524
2019-04-01T11:49:17.882Z,7524
2019-04-01T11:50:18.703Z,7520
2019-04-01T11:51:31.757Z,7508
2019-04-01T11:52:20.370Z,7504
2019-04-01T11:53:17.540Z,7496
2019-04-01T11:54:17.626Z,7496
2019-04-01T11:55:17.469Z,7500
2019-04-01T11:56:17.997Z,7512
2019-04-01T11:57:19.150Z,7520
2019-04-01T11:58:17.405Z,7532
2019-04-01T11:59:17.370Z,7536
2019-04-01T12:00:19.903Z,7528
2019-04-01T12:01:17.327Z,7528
2019-04-01T12:02:18.878Z,7512
2019-04-01T12:03:17.280Z,7504
2019-04-01T12:04:17.272Z,7520
2019-04-01T12:05:17.292Z,7528
2019-04-01T12:06:17.216Z,7536
2019-04-01T12:07:16.951Z,7552
2019-04-01T12:08:17.176Z,7564
2019-04-01T12:09:17.152Z,7580
2019-04-01T12:10:17.125Z,7584
2019-04-01T12:11:17.464Z,7596
2019-04-01T12:12:31.828Z,7608
2019-04-01T12:13:17.062Z,7608
2019-04-01T12:14:17.038Z,7620
2019-04-01T12:15:19.563Z,7632
2019-04-01T12:16:17.001Z,7640
2019-04-01T12:17:16.976Z,7652
2019-04-01T12:18:16.980Z,7664
2019-04-01T12:19:20.558Z,7676
2019-04-01T12:20:16.988Z,7700
2019-04-01T12:21:17.045Z,7708
2019-04-01T12:22:19.896Z,7712
2019-04-01T12:23:17.097Z,7716
2019-04-01T12:24:16.820Z,7708
2019-04-01T12:25:16.889Z,7704
2019-04-01T12:26:22.710Z,7696
2019-04-01T12:27:16.817Z,7700
2019-04-01T12:28:16.866Z,7708
2019-04-01T12:29:19.566Z,7724
2019-04-01T12:30:16.701Z,7736
2019-04-01T12:31:21.487Z,7748
2019-04-01T12:32:16.753Z,7752
2019-04-01T12:33:16.762Z,7756
2019-04-01T12:34:16.885Z,7752
2019-04-01T12:35:16.587Z,7764
2019-04-01T12:36:19.260Z,7772
2019-04-01T12:37:16.553Z,7772
2019-04-01T12:38:16.721Z,7772
2019-04-01T12:39:16.647Z,7772
2019-04-01T12:40:16.493Z,7768
2019-04-01T12:41:16.475Z,7772
2019-04-01T12:42:16.771Z,7780
2019-04-01T12:43:17.676Z,7792
2019-04-01T12:44:18.122Z,7800
2019-04-01T12:45:17.619Z,7812
2019-04-01T12:46:16.671Z,7820
2019-04-01T12:47:16.328Z,7828
2019-04-01T12:48:16.327Z,7828
2019-04-01T12:49:16.289Z,7828
2019-04-01T12:50:16.303Z,7816
2019-04-01T12:51:16.247Z,7820
2019-04-01T12:52:16.320Z,7816
2019-04-01T12:53:16.977Z,7816
2019-04-01T12:54:17.675Z,7824
2019-04-01T12:55:16.229Z,7820
2019-04-01T12:56:15.914Z,7820
2019-04-01T12:57:18.686Z,7816
2019-04-01T12:58:17.689Z,7816
2019-04-01T12:59:16.081Z,7812
2019-04-01T13:00:16.061Z,7820
2019-04-01T13:01:16.040Z,7828
2019-04-01T13:02:18.077Z,7828
2019-04-01T13:03:16.004Z,7836
2019-04-01T13:04:15.984Z,7844
2019-04-01T13:05:15.962Z,7856
2019-04-01T13:06:15.968Z,7880
2019-04-01T13:07:15.919Z,7892
2019-04-01T13:08:15.895Z,7908
2019-04-01T13:09:15.629Z,7924
2019-04-01T13:10:15.947Z,7924
2019-04-01T13:11:15.835Z,7920
2019-04-01T13:12:15.817Z,7924
2019-04-01T13:13:18.298Z,7928
2019-04-01T13:14:16.419Z,7940
2019-04-01T13:15:17.307Z,7948
2019-04-01T13:16:16.295Z,7944
2019-04-01T13:17:15.726Z,7940
2019-04-01T13:18:15.737Z,7944
2019-04-01T13:19:16.014Z,7940
2019-04-01T13:20:16.677Z,7936
2019-04-01T13:21:15.906Z,7920
2019-04-01T13:22:16.519Z,7916
2019-04-01T13:23:16.056Z,7920
2019-04-01T13:24:15.326Z,7928
2019-04-01T13:25:15.546Z,7936
2019-04-01T13:26:15.521Z,7940
2019-04-01T13:27:16.464Z,7952
2019-04-01T13:28:15.489Z,7960
2019-04-01T13:29:15.475Z,7952
2019-04-01T13:30:15.450Z,7956
2019-04-01T13:31:15.420Z,7964
2019-04-01T13:32:15.505Z,7968
2019-04-01T13:33:16.968Z,7976
2019-04-01T13:34:15.359Z,7972
2019-04-01T13:35:15.358Z,7980
2019-04-01T13:36:15.414Z,7980
2019-04-01T13:37:15.313Z,7988
2019-04-01T13:38:19.808Z,7992
2019-04-01T13:39:16.305Z,7992
2019-04-01T13:40:15.319Z,7996
2019-04-01T13:41:18.524Z,7992
2019-04-01T13:42:16.953Z,7996
2019-04-01T13:43:19.348Z,7992
2019-04-01T13:44:16.196Z,7988
2019-04-01T13:45:15.147Z,7988
2019-04-01T13:46:15.109Z,7980
2019-04-01T13:47:14.862Z,7984
2019-04-01T13:48:15.075Z,7996